Time;durP1;ratioP1;P1;durP2;ratioP2;P2;SDS_P1;SDS_P2;PMS_P1;PMS_P2;Temp;Humidity;BMP_temperature;BMP_pressure;BME280_temperature;BME280_humidity;BME280_pressure;Samples;Min_cycle;Max_cycle;Signal;HPM_P1;HPM_P2
2020/12/09 00:01:02;;;;;;;4.47;3.42;;;15.10;63.40;;;;;;10543436;28;20119;-64
2020/12/09 00:06:04;;;;;;;4.13;3.67;;;15.10;63.40;;;;;;10559695;28;20111;-65
2020/12/09 00:11:07;;;;;;;4.25;3.58;;;15.10;63.40;;;;;;10543504;28;20057;-65
2020/12/09 00:16:08;;;;;;;3.75;3.22;;;15.00;63.30;;;;;;10559942;28;20076;-65
2020/12/09 00:21:08;;;;;;;4.40;3.88;;;15.00;63.30;;;;;;10557711;28;20024;-65
2020/12/09 00:26:09;;;;;;;4.13;3.33;;;15.00;63.30;;;;;;10559944;28;20040;-65
2020/12/09 00:31:12;;;;;;;5.28;3.65;;;15.00;63.40;;;;;;10576992;28;20031;-65
2020/12/09 00:36:18;;;;;;;4.32;3.92;;;15.00;63.40;;;;;;10555169;28;20040;-65
2020/12/09 00:41:24;;;;;;;5.18;4.13;;;14.90;63.30;;;;;;10558472;28;20073;-65
2020/12/09 00:46:28;;;;;;;4.25;3.85;;;14.90;63.30;;;;;;10556945;28;20077;-65
2020/12/09 00:51:29;;;;;;;4.50;4.10;;;14.90;63.40;;;;;;10566560;28;20281;-65
2020/12/09 00:56:29;;;;;;;5.05;4.20;;;14.90;63.30;;;;;;10557006;28;20103;-65
2020/12/09 01:01:30;;;;;;;5.20;3.97;;;14.90;63.20;;;;;;10548148;28;20542;-65
2020/12/09 01:06:34;;;;;;;4.35;3.78;;;14.90;63.20;;;;;;10556227;28;20032;-66
2020/12/09 01:11:35;;;;;;;4.32;3.88;;;14.80;63.20;;;;;;10541786;28;20091;-65
2020/12/09 01:16:36;;;;;;;4.65;3.80;;;14.80;63.20;;;;;;10557430;28;20392;-65
2020/12/09 01:21:36;;;;;;;4.55;3.70;;;14.80;63.20;;;;;;10548494;28;20135;-65
2020/12/09 01:26:37;;;;;;;4.97;3.88;;;14.80;63.20;;;;;;10572741;28;20047;-65
2020/12/09 01:31:38;;;;;;;4.90;3.75;;;14.80;63.20;;;;;;10556335;28;20088;-65
2020/12/09 01:36:38;;;;;;;4.57;3.60;;;14.80;63.20;;;;;;10547937;28;20027;-65
2020/12/09 01:41:39;;;;;;;3.42;3.13;;;14.70;63.10;;;;;;10553376;28;20075;-65
2020/12/09 01:46:40;;;;;;;3.83;3.35;;;14.70;63.00;;;;;;10559307;28;20111;-66
2020/12/09 01:51:41;;;;;;;4.55;3.78;;;14.70;63.10;;;;;;10573392;28;20050;-65
2020/12/09 01:56:42;;;;;;;4.03;3.08;;;14.70;63.70;;;;;;10561019;28;20034;-66
2020/12/09 02:01:43;;;;;;;4.45;3.50;;;14.70;63.10;;;;;;10541744;28;20038;-66
2020/12/09 02:06:44;;;;;;;3.72;3.08;;;14.70;63.10;;;;;;10557935;28;20498;-66
2020/12/09 02:11:46;;;;;;;4.10;3.63;;;14.60;63.00;;;;;;10562099;28;20028;-66
2020/12/09 02:16:55;;;;;;;4.18;3.30;;;14.60;62.90;;;;;;10550696;28;20024;-66
2020/12/09 02:22:10;;;;;;;4.20;3.57;;;14.60;63.00;;;;;;10568160;28;20081;-66
2020/12/09 02:27:11;;;;;;;4.07;3.67;;;14.60;62.90;;;;;;10574692;28;20304;-66
2020/12/09 02:32:11;;;;;;;4.13;3.47;;;14.60;62.90;;;;;;10566052;28;20026;-65
2020/12/09 02:37:12;;;;;;;3.90;3.50;;;14.60;62.90;;;;;;10552758;28;20098;-66
2020/12/09 02:42:13;;;;;;;4.25;3.60;;;14.50;62.90;;;;;;10553136;28;20107;-66
2020/12/09 02:47:13;;;;;;;4.75;3.85;;;14.50;62.90;;;;;;10566222;28;20034;-65
2020/12/09 02:52:14;;;;;;;4.28;3.55;;;14.50;62.90;;;;;;10566411;28;20024;-65
2020/12/09 02:57:15;;;;;;;3.90;2.95;;;14.50;62.80;;;;;;10548946;28;20028;-66
2020/12/09 03:02:16;;;;;;;4.25;3.85;;;14.50;62.90;;;;;;10527268;28;20020;-66
2020/12/09 03:07:16;;;;;;;4.88;3.60;;;14.50;62.90;;;;;;10534686;28;20036;-66
2020/12/09 03:12:17;;;;;;;4.65;3.88;;;14.50;62.90;;;;;;10562623;28;20490;-66
2020/12/09 03:17:18;;;;;;;4.30;3.38;;;14.50;62.80;;;;;;10557955;28;20036;-66
2020/12/09 03:22:18;;;;;;;5.20;3.65;;;14.40;62.90;;;;;;10559025;28;20531;-65
2020/12/09 03:27:19;;;;;;;3.95;2.92;;;14.40;62.90;;;;;;10552200;28;20066;-66
2020/12/09 03:32:20;;;;;;;4.10;3.60;;;14.40;62.90;;;;;;10548402;28;20024;-65
2020/12/09 03:37:20;;;;;;;4.53;3.63;;;14.40;62.90;;;;;;10547507;28;20028;-66
2020/12/09 03:42:21;;;;;;;4.85;3.40;;;14.30;62.90;;;;;;10552204;28;20079;-66
2020/12/09 03:47:22;;;;;;;4.38;3.60;;;14.40;63.00;;;;;;10539663;28;20032;-66
2020/12/09 03:52:22;;;;;;;4.47;3.55;;;14.40;62.90;;;;;;10550084;28;20023;-65
2020/12/09 03:57:23;;;;;;;5.57;3.88;;;14.30;62.90;;;;;;10552453;28;20032;-66
2020/12/09 04:02:24;;;;;;;4.78;4.32;;;14.30;63.00;;;;;;10540146;28;20032;-67
2020/12/09 04:07:24;;;;;;;4.95;3.63;;;14.30;63.00;;;;;;10550557;28;20474;-67
2020/12/09 04:12:25;;;;;;;6.18;4.57;;;14.30;63.10;;;;;;10547717;28;20555;-67
2020/12/09 04:17:26;;;;;;;5.05;4.55;;;14.20;63.10;;;;;;10550654;28;20513;-67
2020/12/09 04:22:26;;;;;;;6.40;5.20;;;14.30;63.10;;;;;;10567886;28;20428;-65
2020/12/09 04:27:27;;;;;;;6.13;4.68;;;14.30;63.80;;;;;;10563543;28;20457;-66
2020/12/09 04:32:28;;;;;;;5.93;4.95;;;14.30;63.20;;;;;;10544556;28;20387;-67
2020/12/09 04:37:29;;;;;;;5.82;4.95;;;14.20;63.20;;;;;;10544586;28;20057;-66
2020/12/09 04:42:30;;;;;;;6.85;5.38;;;14.20;63.20;;;;;;10551368;28;20077;-66
2020/12/09 04:47:45;;;;;;;8.38;5.72;;;14.20;63.30;;;;;;10557135;28;20028;-67
2020/12/09 04:53:02;;;;;;;6.95;5.55;;;14.20;63.30;;;;;;10571470;28;20371;-66
2020/12/09 04:58:14;;;;;;;8.40;5.75;;;14.20;63.30;;;;;;10556254;28;20123;-67
2020/12/09 05:03:19;;;;;;;7.32;5.72;;;14.20;63.30;;;;;;10574372;28;20490;-67
2020/12/09 05:08:22;;;;;;;7.25;5.63;;;14.20;63.40;;;;;;10552847;28;20490;-68
2020/12/09 05:13:26;;;;;;;7.60;6.00;;;14.10;63.30;;;;;;10548179;28;20054;-67
2020/12/09 05:18:43;;;;;;;8.13;6.13;;;14.10;63.40;;;;;;10562178;28;20472;-68
2020/12/09 05:23:58;;;;;;;8.73;7.00;;;14.10;63.40;;;;;;10568846;28;20032;-67
2020/12/09 05:29:06;;;;;;;8.25;6.15;;;14.10;63.40;;;;;;10565064;28;20047;-67
2020/12/09 05:34:22;;;;;;;8.23;6.45;;;14.10;63.40;;;;;;10561996;28;20040;-67
2020/12/09 05:39:24;;;;;;;7.93;6.38;;;14.10;64.00;;;;;;10556130;28;20390;-67
2020/12/09 05:44:25;;;;;;;8.15;6.88;;;14.10;63.50;;;;;;10551889;28;20020;-67
2020/12/09 05:49:30;;;;;;;10.15;7.63;;;14.10;63.50;;;;;;10558169;28;20043;-66
2020/12/09 05:54:31;;;;;;;12.68;8.20;;;14.00;63.40;;;;;;10568170;28;20106;-67
2020/12/09 05:59:52;;;;;;;10.60;7.97;;;14.00;63.50;;;;;;10575098;28;20032;-67
2020/12/09 06:04:59;;;;;;;9.52;8.20;;;14.00;63.50;;;;;;10569375;28;20396;-67
2020/12/09 06:10:19;;;;;;;11.35;8.85;;;14.00;63.50;;;;;;10545278;28;20043;-67
2020/12/09 06:15:25;;;;;;;12.05;8.85;;;14.00;63.40;;;;;;10551130;28;20031;-67
2020/12/09 06:20:28;;;;;;;12.23;8.77;;;14.00;63.50;;;;;;10558985;28;20016;-67
2020/12/09 06:25:29;;;;;;;11.05;8.35;;;14.00;63.40;;;;;;10574195;28;20078;-66
2020/12/09 06:30:30;;;;;;;11.00;9.15;;;14.00;63.50;;;;;;10559170;28;20438;-67
2020/12/09 06:40:55;;;;;;;15.85;10.68;;;14.00;63.30;;;;;;10617722;27;20358;-62
2020/12/09 06:45:56;;;;;;;12.20;8.50;;;17.90;57.40;;;;;;10571176;28;20051;-64
2020/12/09 06:50:57;;;;;;;14.30;10.00;;;20.00;50.80;;;;;;10572119;28;20038;-69
2020/12/09 06:56:16;;;;;;;13.75;9.13;;;21.10;48.20;;;;;;10568833;28;20499;-66
2020/12/09 07:01:16;;;;;;;11.98;8.25;;;22.10;46.50;;;;;;10571372;28;20036;-63
2020/12/09 07:06:20;;;;;;;15.80;7.97;;;22.70;45.30;;;;;;10545151;28;20111;-64
2020/12/09 07:11:21;;;;;;;16.77;9.07;;;23.30;43.70;;;;;;10544393;28;20468;-65
2020/12/09 07:16:28;;;;;;;10.43;7.63;;;23.30;43.70;;;;;;10556849;28;20066;-61
2020/12/09 07:21:29;;;;;;;14.55;8.48;;;23.70;43.00;;;;;;10567491;28;20165;-66
2020/12/09 07:26:30;;;;;;;17.15;8.35;;;24.10;42.40;;;;;;10564743;28;20180;-65
2020/12/09 07:31:31;;;;;;;19.27;7.57;;;24.30;41.80;;;;;;10581671;28;20028;-61
2020/12/09 07:36:32;;;;;;;36.67;9.20;;;24.10;42.20;;;;;;10570930;28;20039;-64
2020/12/09 07:41:43;;;;;;;21.02;7.70;;;24.10;42.10;;;;;;10562908;28;20490;-64
2020/12/09 07:46:56;;;;;;;19.70;7.38;;;24.20;41.80;;;;;;10559483;28;20028;-64
2020/12/09 07:51:57;;;;;;;19.70;9.02;;;24.40;41.70;;;;;;10521449;28;20029;-64
2020/12/09 07:56:58;;;;;;;19.52;7.05;;;24.50;42.30;;;;;;10537072;28;20036;-63
2020/12/09 08:02:21;;;;;;;20.85;7.53;;;24.70;41.30;;;;;;10537149;28;20025;-63
2020/12/09 08:07:23;;;;;;;20.10;7.70;;;24.80;40.90;;;;;;10531136;28;20032;-64
2020/12/09 08:12:28;;;;;;;16.27;7.07;;;24.70;41.20;;;;;;10537168;28;20389;-63
2020/12/09 08:17:29;;;;;;;13.13;7.10;;;24.70;41.20;;;;;;10528443;28;20069;-64
2020/12/09 08:22:30;;;;;;;15.15;6.97;;;24.80;41.30;;;;;;10528985;28;20028;-61
2020/12/09 08:27:42;;;;;;;17.23;7.07;;;24.70;41.70;;;;;;10530750;28;20111;-60
2020/12/09 08:33:15;;;;;;;17.35;6.72;;;24.80;41.50;;;;;;10529761;28;20036;-63
2020/12/09 08:38:32;;;;;;;16.98;6.88;;;24.80;41.30;;;;;;10525373;28;20040;-61
2020/12/09 08:43:36;;;;;;;18.75;7.93;;;24.70;42.00;;;;;;10524632;28;20097;-61
2020/12/09 08:48:38;;;;;;;19.13;6.30;;;24.70;42.00;;;;;;10566234;27;20491;-58
2020/12/09 08:53:39;;;;;;;14.38;6.82;;;24.80;42.30;;;;;;10530786;28;20085;-60
2020/12/09 08:58:40;;;;;;;22.20;7.38;;;24.80;42.30;;;;;;10527532;28;20509;-61
2020/12/09 09:03:41;;;;;;;25.92;8.73;;;24.80;42.90;;;;;;10536588;28;20556;-61
2020/12/09 09:08:42;;;;;;;23.17;8.55;;;24.70;42.50;;;;;;10532875;28;20066;-60
2020/12/09 09:13:42;;;;;;;29.95;8.75;;;24.70;42.50;;;;;;10531062;28;20609;-59
2020/12/09 09:18:43;;;;;;;24.33;8.80;;;24.70;42.40;;;;;;10529254;28;20443;-58
2020/12/09 09:23:44;;;;;;;25.95;8.23;;;24.80;42.40;;;;;;10532411;28;20072;-60
2020/12/09 09:28:45;;;;;;;23.45;8.35;;;24.70;42.20;;;;;;10538237;28;20082;-60
2020/12/09 09:33:45;;;;;;;21.13;9.63;;;24.80;41.90;;;;;;10539555;28;20028;-60
2020/12/09 09:38:46;;;;;;;19.58;7.97;;;24.60;42.90;;;;;;10534962;28;20455;-61
2020/12/09 09:43:47;;;;;;;23.58;8.05;;;24.70;42.70;;;;;;10526720;28;20099;-60
2020/12/09 09:48:48;;;;;;;25.27;7.70;;;24.60;43.00;;;;;;10523978;28;20397;-62
2020/12/09 09:53:48;;;;;;;24.38;8.27;;;24.70;42.90;;;;;;10561073;27;20024;-59
2020/12/09 09:58:49;;;;;;;28.83;8.05;;;24.50;42.90;;;;;;10530506;28;20116;-59
2020/12/09 10:05:24;;;;;;;20.83;8.35;;;24.70;41.80;;;;;;10506044;28;20359;-60
2020/12/09 10:10:25;;;;;;;17.35;8.23;;;21.10;47.10;;;;;;10472163;28;20021;-60
2020/12/09 10:15:26;;;;;;;18.63;7.13;;;19.10;52.20;;;;;;10485558;28;20047;-59
2020/12/09 10:20:26;;;;;;;18.45;7.78;;;18.30;54.40;;;;;;10465366;28;20031;-60
2020/12/09 10:25:27;;;;;;;15.15;6.75;;;17.90;55.60;;;;;;10467681;28;20021;-59
2020/12/09 10:30:28;;;;;;;16.67;7.57;;;17.70;56.20;;;;;;10473915;28;20021;-59
2020/12/09 10:35:28;;;;;;;14.93;7.55;;;17.50;56.70;;;;;;10484143;28;20033;-59
2020/12/09 10:40:29;;;;;;;13.65;7.35;;;17.40;57.00;;;;;;10483665;28;20031;-60
2020/12/09 10:45:30;;;;;;;12.95;7.20;;;17.40;57.00;;;;;;10487984;28;20120;-62
2020/12/09 10:50:30;;;;;;;11.63;7.15;;;17.30;57.30;;;;;;10480569;28;20366;-60
2020/12/09 10:55:31;;;;;;;11.35;7.18;;;17.20;57.70;;;;;;10480078;28;20020;-59
2020/12/09 11:00:32;;;;;;;10.70;7.40;;;17.20;57.70;;;;;;10460779;28;20025;-60
2020/12/09 11:05:32;;;;;;;11.50;7.70;;;17.10;57.90;;;;;;10456958;28;20029;-60
2020/12/09 11:10:33;;;;;;;13.80;7.82;;;17.00;58.20;;;;;;10469736;28;20024;-59
2020/12/09 11:15:34;;;;;;;10.32;6.93;;;17.00;58.00;;;;;;10456358;28;20159;-60
2020/12/09 11:20:35;;;;;;;9.85;6.30;;;17.10;57.90;;;;;;10452574;28;20126;-60
2020/12/09 11:25:37;;;;;;;9.68;6.85;;;17.10;57.80;;;;;;10455232;28;20021;-60
2020/12/09 11:30:38;;;;;;;13.30;7.78;;;17.10;57.90;;;;;;10457516;28;20465;-60
2020/12/09 11:35:38;;;;;;;12.07;7.78;;;17.00;57.90;;;;;;10438590;28;20028;-62
2020/12/09 11:40:39;;;;;;;13.85;6.78;;;17.10;57.90;;;;;;10431917;28;20120;-61
2020/12/09 11:45:40;;;;;;;10.02;6.95;;;17.20;57.90;;;;;;10428022;28;20044;-59
2020/12/09 11:50:41;;;;;;;13.75;6.55;;;17.10;58.00;;;;;;10422197;28;20107;-59
2020/12/09 11:55:42;;;;;;;10.77;6.75;;;17.10;58.60;;;;;;10440692;28;20021;-64
2020/12/09 12:00:43;;;;;;;12.55;7.35;;;17.00;58.50;;;;;;10431980;28;20046;-62
2020/12/09 12:05:46;;;;;;;16.05;7.95;;;19.10;55.10;;;;;;10450992;28;20057;-61
2020/12/09 12:10:47;;;;;;;14.77;7.13;;;21.60;49.90;;;;;;10444779;28;20036;-64
2020/12/09 12:15:47;;;;;;;13.38;7.35;;;22.70;48.00;;;;;;10439240;28;20147;-61
2020/12/09 12:20:48;;;;;;;13.50;6.90;;;23.10;47.80;;;;;;10437551;28;20025;-61
2020/12/09 12:25:50;;;;;;;14.20;7.40;;;23.60;46.10;;;;;;10454345;28;20033;-63
2020/12/09 12:30:51;;;;;;;11.63;7.45;;;23.60;46.20;;;;;;10446782;28;20032;-61
2020/12/09 12:35:52;;;;;;;17.02;7.40;;;23.80;45.90;;;;;;10448402;28;20037;-62
2020/12/09 12:40:52;;;;;;;12.63;7.35;;;24.00;44.80;;;;;;10447102;28;20496;-61
2020/12/09 12:45:53;;;;;;;13.40;7.40;;;24.00;44.70;;;;;;10446358;28;20063;-61
2020/12/09 12:50:54;;;;;;;11.23;6.63;;;24.00;44.30;;;;;;10446787;28;20432;-60
2020/12/09 12:55:55;;;;;;;16.65;7.35;;;24.10;44.30;;;;;;10446438;28;20029;-61
2020/12/09 13:00:57;;;;;;;10.40;7.75;;;24.00;44.10;;;;;;10449119;28;20083;-60
2020/12/09 13:05:58;;;;;;;14.02;7.47;;;24.30;43.70;;;;;;10450106;28;20051;-60
2020/12/09 13:10:59;;;;;;;14.63;7.50;;;24.20;43.60;;;;;;10445186;28;20032;-60
2020/12/09 13:16:00;;;;;;;12.52;7.10;;;24.20;43.50;;;;;;10443567;28;20029;-60
2020/12/09 13:21:02;;;;;;;11.45;7.53;;;24.30;43.30;;;;;;10442752;28;20025;-60
2020/12/09 13:26:03;;;;;;;13.32;8.15;;;24.20;43.30;;;;;;10441065;28;20026;-61
2020/12/09 13:31:03;;;;;;;13.07;8.02;;;24.50;42.90;;;;;;10434383;28;20470;-62
2020/12/09 13:36:04;;;;;;;10.23;7.60;;;24.40;43.00;;;;;;10446441;28;20133;-61
2020/12/09 13:41:05;;;;;;;15.77;7.90;;;24.20;43.20;;;;;;10443290;28;20086;-60
2020/12/09 13:46:05;;;;;;;9.95;6.53;;;24.40;42.90;;;;;;10440095;28;20040;-61
2020/12/09 13:51:06;;;;;;;10.77;8.20;;;24.30;42.80;;;;;;10440555;28;20489;-60
2020/12/09 13:56:07;;;;;;;17.85;9.07;;;24.40;42.10;;;;;;10439666;28;20037;-64
2020/12/09 14:01:12;;;;;;;14.77;7.55;;;24.30;42.50;;;;;;10442568;28;20041;-61
2020/12/09 14:06:20;;;;;;;14.90;8.73;;;24.20;42.60;;;;;;10447464;28;20029;-61
2020/12/09 14:11:32;;;;;;;13.23;8.70;;;24.20;42.50;;;;;;10465133;28;20155;-62
2020/12/09 14:16:41;;;;;;;14.60;8.73;;;24.10;42.50;;;;;;10443548;28;20040;-62
2020/12/09 14:21:42;;;;;;;16.08;8.32;;;24.20;42.20;;;;;;10442636;28;20036;-62
2020/12/09 14:26:44;;;;;;;15.45;9.00;;;24.20;42.90;;;;;;10442161;28;20059;-60
2020/12/09 14:31:52;;;;;;;10.55;7.15;;;24.20;42.60;;;;;;10450059;28;20028;-60
2020/12/09 14:36:53;;;;;;;15.45;7.93;;;24.10;42.50;;;;;;10449820;28;20079;-60
2020/12/09 14:41:54;;;;;;;14.68;7.80;;;24.10;42.90;;;;;;10439105;28;20516;-60
2020/12/09 14:46:55;;;;;;;14.80;8.30;;;24.10;42.70;;;;;;10435505;28;20060;-62
2020/12/09 14:51:57;;;;;;;11.70;7.63;;;24.20;42.90;;;;;;10428752;28;20037;-61
2020/12/09 14:56:58;;;;;;;13.80;7.72;;;24.20;43.00;;;;;;10459479;28;20021;-61
2020/12/09 15:01:59;;;;;;;11.70;7.10;;;24.20;43.20;;;;;;10456229;28;20116;-61
2020/12/09 15:07:00;;;;;;;15.43;8.30;;;24.20;43.30;;;;;;10451116;28;20067;-62
2020/12/09 15:12:01;;;;;;;10.82;7.28;;;24.20;43.50;;;;;;10455109;28;20112;-61
2020/12/09 15:17:02;;;;;;;13.25;7.60;;;24.20;43.80;;;;;;10446797;28;20536;-61
2020/12/09 15:22:02;;;;;;;13.00;7.50;;;24.30;43.30;;;;;;10455007;28;20186;-61
2020/12/09 15:27:03;;;;;;;14.02;7.55;;;24.40;43.50;;;;;;10458814;28;20025;-60
2020/12/09 15:32:04;;;;;;;10.25;7.97;;;24.40;43.10;;;;;;10450724;28;20029;-58
2020/12/09 15:37:05;;;;;;;10.10;7.95;;;25.00;42.60;;;;;;10454972;28;20116;-60
2020/12/09 15:42:06;;;;;;;19.65;8.20;;;24.70;42.70;;;;;;10453110;28;20125;-62
2020/12/09 15:47:07;;;;;;;12.45;7.38;;;24.30;43.70;;;;;;10458936;28;20028;-60
2020/12/09 15:52:07;;;;;;;13.18;7.03;;;24.30;44.20;;;;;;10431058;28;20029;-61
2020/12/09 15:57:08;;;;;;;18.60;8.10;;;24.30;44.80;;;;;;10430632;28;20052;-58
2020/12/09 16:02:09;;;;;;;11.50;7.03;;;24.20;45.10;;;;;;10439001;28;20393;-62
2020/12/09 16:07:09;;;;;;;30.70;8.15;;;24.40;44.50;;;;;;10445628;28;20064;-62
2020/12/09 16:12:10;;;;;;;16.27;7.68;;;24.30;44.50;;;;;;10452201;28;20151;-59
2020/12/09 16:17:12;;;;;;;15.60;7.63;;;24.30;44.90;;;;;;10453893;28;20063;-60
2020/12/09 16:22:12;;;;;;;13.10;6.35;;;24.10;45.60;;;;;;10450581;28;20112;-61
2020/12/09 16:27:13;;;;;;;20.35;8.18;;;23.90;45.60;;;;;;10452512;28;20029;-62
2020/12/09 16:32:14;;;;;;;19.83;7.50;;;23.90;45.80;;;;;;10454899;28;20119;-62
2020/12/09 16:37:15;;;;;;;22.30;11.20;;;24.00;45.80;;;;;;10444554;28;20036;-64
2020/12/09 16:42:16;;;;;;;18.85;10.93;;;24.20;45.20;;;;;;10445694;28;20108;-64
2020/12/09 16:47:18;;;;;;;20.33;10.80;;;24.20;44.50;;;;;;10444654;28;20021;-61
2020/12/09 16:52:19;;;;;;;23.67;11.68;;;24.00;43.50;;;;;;10440923;28;20129;-60
2020/12/09 16:57:20;;;;;;;18.27;11.55;;;23.90;43.10;;;;;;10441236;28;20039;-61
2020/12/09 17:02:21;;;;;;;25.27;12.75;;;24.30;42.40;;;;;;10444080;28;20393;-61
2020/12/09 17:07:22;;;;;;;28.58;15.25;;;24.50;41.60;;;;;;10447943;28;20347;-56
2020/12/09 17:12:23;;;;;;;21.48;12.52;;;24.80;42.00;;;;;;10454544;28;20029;-56
2020/12/09 17:17:28;;;;;;;16.85;11.77;;;25.20;42.40;;;;;;10445420;28;20178;-58
2020/12/09 17:22:28;;;;;;;28.40;12.77;;;25.40;42.40;;;;;;10465068;28;20064;-58
2020/12/09 17:27:31;;;;;;;21.17;11.27;;;25.10;43.60;;;;;;10446421;28;20818;-58
2020/12/09 17:32:32;;;;;;;15.20;11.70;;;24.80;44.10;;;;;;10453568;28;20060;-60
2020/12/09 17:37:33;;;;;;;18.92;9.98;;;24.70;44.40;;;;;;10455876;28;20112;-59
2020/12/09 17:42:34;;;;;;;21.45;11.00;;;24.70;44.40;;;;;;10455902;28;20035;-60
2020/12/09 17:47:34;;;;;;;22.33;10.25;;;24.50;44.60;;;;;;10451364;28;20428;-59
2020/12/09 17:52:35;;;;;;;17.65;9.90;;;24.70;43.70;;;;;;10447146;28;20055;-60
2020/12/09 17:57:36;;;;;;;17.13;10.20;;;24.70;43.70;;;;;;10441109;28;20219;-60
2020/12/09 18:02:36;;;;;;;15.18;9.77;;;24.70;44.20;;;;;;10430795;28;20136;-60
2020/12/09 18:07:37;;;;;;;17.42;10.35;;;24.50;43.00;;;;;;10446484;28;20029;-60
2020/12/09 18:12:38;;;;;;;16.13;10.02;;;24.80;44.00;;;;;;10452059;28;20104;-60
2020/12/09 18:17:39;;;;;;;13.77;8.73;;;24.60;44.60;;;;;;10439019;28;20547;-60
2020/12/09 18:22:39;;;;;;;14.82;9.55;;;24.30;45.20;;;;;;10437570;28;20116;-59
2020/12/09 18:27:40;;;;;;;10.93;8.77;;;24.30;45.30;;;;;;10450022;28;20033;-57
2020/12/09 18:32:43;;;;;;;13.85;9.07;;;24.20;46.20;;;;;;10460377;28;20103;-59
2020/12/09 18:37:44;;;;;;;13.30;8.77;;;24.20;46.10;;;;;;10453767;28;20036;-58
2020/12/09 18:42:44;;;;;;;12.18;8.02;;;24.10;46.20;;;;;;10460071;28;20491;-58
2020/12/09 18:47:45;;;;;;;13.77;8.35;;;24.10;46.50;;;;;;10453697;28;20377;-60
2020/12/09 18:52:46;;;;;;;14.18;8.23;;;23.90;46.70;;;;;;10456630;28;20111;-59
2020/12/09 18:57:46;;;;;;;12.50;7.85;;;24.00;46.50;;;;;;10459885;28;20020;-58
2020/12/09 19:02:47;;;;;;;11.18;7.43;;;24.10;46.20;;;;;;10458636;28;20112;-58
2020/12/09 19:07:50;;;;;;;12.50;7.70;;;24.30;46.10;;;;;;10450165;28;20041;-58
2020/12/09 19:12:52;;;;;;;9.27;7.13;;;24.50;45.60;;;;;;10457163;28;20039;-58
2020/12/09 19:17:53;;;;;;;10.70;7.50;;;24.50;45.30;;;;;;10456830;28;20029;-57
2020/12/09 19:22:54;;;;;;;11.77;7.60;;;24.40;45.60;;;;;;10441297;28;20033;-59
2020/12/09 19:27:54;;;;;;;10.57;7.00;;;24.20;45.80;;;;;;10457972;28;20036;-58
2020/12/09 19:32:56;;;;;;;9.20;6.90;;;24.40;45.70;;;;;;10458900;28;20500;-60
2020/12/09 19:37:56;;;;;;;7.85;6.60;;;24.50;45.20;;;;;;10451652;28;20029;-58
2020/12/09 19:42:57;;;;;;;11.95;6.60;;;24.50;45.40;;;;;;10458599;28;20033;-59
2020/12/09 19:47:58;;;;;;;8.20;6.18;;;24.40;45.30;;;;;;10448516;28;20032;-59
2020/12/09 19:52:59;;;;;;;8.63;6.38;;;24.30;45.00;;;;;;10450583;28;20021;-59
2020/12/09 19:57:59;;;;;;;9.40;6.15;;;24.40;45.00;;;;;;10427777;28;20029;-57
2020/12/09 20:03:00;;;;;;;11.07;7.00;;;24.20;45.20;;;;;;10423494;28;20124;-59
2020/12/09 20:08:00;;;;;;;8.57;5.47;;;24.20;45.20;;;;;;10426047;28;20080;-58
2020/12/09 20:13:02;;;;;;;8.82;6.47;;;24.40;44.80;;;;;;10440048;28;20471;-59
2020/12/09 20:18:02;;;;;;;7.18;5.85;;;24.40;44.40;;;;;;10452682;28;20108;-59
2020/12/09 20:28:07;;;;;;;11.77;6.97;;;22.20;46.70;;;;;;10447174;28;20044;-58
2020/12/09 20:33:08;;;;;;;8.95;5.82;;;19.70;52.60;;;;;;10457268;28;20037;-59
2020/12/09 20:38:09;;;;;;;6.97;5.32;;;18.30;56.50;;;;;;10457712;28;20049;-59
2020/12/09 20:43:10;;;;;;;6.60;5.60;;;17.50;58.80;;;;;;10472083;28;20040;-59
2020/12/09 20:48:11;;;;;;;11.60;6.25;;;17.10;60.30;;;;;;10453232;28;20564;-59
2020/12/09 20:53:12;;;;;;;9.43;5.38;;;16.80;61.20;;;;;;10454203;28;20033;-57
2020/12/09 20:58:12;;;;;;;9.35;5.10;;;16.50;61.70;;;;;;10451614;28;20485;-58
2020/12/09 21:03:13;;;;;;;10.07;6.28;;;16.40;62.20;;;;;;10438119;28;20124;-59
2020/12/09 21:08:14;;;;;;;8.30;5.75;;;16.20;62.50;;;;;;10452857;28;20532;-59
2020/12/09 21:13:14;;;;;;;9.75;5.70;;;16.10;62.70;;;;;;10452583;28;20025;-59
2020/12/09 21:18:16;;;;;;;8.60;5.93;;;16.00;62.90;;;;;;10453102;28;20392;-59
2020/12/09 21:23:16;;;;;;;7.60;6.03;;;15.90;62.90;;;;;;10435609;28;20052;-59
2020/12/09 21:28:17;;;;;;;7.88;5.72;;;15.90;62.90;;;;;;10452937;28;20039;-59
2020/12/09 21:33:18;;;;;;;9.27;6.03;;;15.80;62.90;;;;;;10455718;28;20636;-57
2020/12/09 21:38:21;;;;;;;9.73;6.43;;;15.80;63.00;;;;;;10454575;28;20499;-59
2020/12/09 21:43:21;;;;;;;8.57;5.55;;;15.80;63.00;;;;;;10456758;28;20568;-59
2020/12/09 21:48:22;;;;;;;7.22;6.40;;;15.70;63.00;;;;;;10455719;28;20104;-58
2020/12/09 21:53:23;;;;;;;11.38;5.82;;;15.70;63.00;;;;;;10455278;28;20107;-59
2020/12/09 21:58:23;;;;;;;8.20;6.20;;;15.60;62.90;;;;;;10454916;28;20057;-59
2020/12/09 22:03:24;;;;;;;7.40;5.82;;;15.50;62.90;;;;;;10454554;28;20056;-59
2020/12/09 22:08:25;;;;;;;8.70;6.15;;;15.50;63.00;;;;;;10453865;28;20046;-59
2020/12/09 22:13:26;;;;;;;9.05;6.30;;;15.50;62.90;;;;;;10454952;28;20033;-59
2020/12/09 22:18:27;;;;;;;7.38;6.20;;;15.40;62.80;;;;;;10454748;28;20171;-59
2020/12/09 22:23:28;;;;;;;10.10;5.72;;;15.40;63.00;;;;;;10454513;28;20060;-59
2020/12/09 22:28:28;;;;;;;9.20;7.03;;;15.40;63.20;;;;;;10454271;28;20033;-59
2020/12/09 22:33:29;;;;;;;8.20;5.13;;;15.30;63.10;;;;;;10454066;28;20441;-59
2020/12/09 22:38:30;;;;;;;7.72;5.85;;;15.30;63.10;;;;;;10452327;28;20500;-59
2020/12/09 22:43:30;;;;;;;8.07;5.88;;;15.30;63.10;;;;;;10452017;28;20025;-57
2020/12/09 22:48:31;;;;;;;8.85;6.32;;;15.30;63.00;;;;;;10454268;28;20033;-58
2020/12/09 22:53:32;;;;;;;7.72;5.95;;;15.30;62.90;;;;;;10442652;28;20043;-58
2020/12/09 22:58:33;;;;;;;7.50;5.75;;;15.20;63.00;;;;;;10444621;28;20072;-59
2020/12/09 23:03:34;;;;;;;8.88;5.65;;;15.20;62.90;;;;;;10452074;28;20044;-59
2020/12/09 23:08:34;;;;;;;8.65;6.28;;;15.20;62.90;;;;;;10454430;28;20053;-58
2020/12/09 23:13:35;;;;;;;9.60;6.97;;;15.20;62.90;;;;;;10476676;28;20028;-59
2020/12/09 23:18:36;;;;;;;6.35;5.07;;;15.10;62.90;;;;;;10476481;28;20116;-59
2020/12/09 23:23:38;;;;;;;8.80;6.43;;;15.10;62.90;;;;;;10475982;28;20501;-58
2020/12/09 23:28:40;;;;;;;7.68;6.20;;;15.10;63.00;;;;;;10460516;28;20182;-58
2020/12/09 23:33:40;;;;;;;5.95;5.20;;;15.10;63.00;;;;;;10457057;28;20544;-58
2020/12/09 23:38:41;;;;;;;9.50;6.32;;;15.10;63.10;;;;;;10458725;28;20135;-58
2020/12/09 23:43:53;;;;;;;7.20;5.88;;;15.00;62.90;;;;;;10461041;28;20060;-59
2020/12/09 23:48:54;;;;;;;7.22;5.45;;;15.00;63.00;;;;;;10458386;28;20029;-58
2020/12/09 23:53:56;;;;;;;9.15;6.05;;;15.00;63.00;;;;;;10472478;28;20119;-58
2020/12/09 23:58:57;;;;;;;9.30;5.90;;;15.00;62.90;;;;;;10459420;28;20116;-58
